Vielsalm, Belgium
Current Conditions -  °F | °C
As of 2:25 PM on Tuesday 21 Oct 2014 (Local Time) from EBLB Reporting Station
Broken Clouds Broken Clouds  
Wind Chill: 42°   Ceiling: 700
Heat Index: 48°   Visibility: 3mi
Dew Point: 48°   Wind: 16mph
Humidity: 100%   Direction: 220°SW
Pressure: 29.62"   Gusts: NA
Location:  50.28°N, 5.92°E
Report Text: EBLB 211225Z AUTO 22014KT 5000 FEW005/// BKN007/// BKN009/// 09/09 Q1003 GRN
Loading
Personal Weather Stations






























Interactive Weather Map
Tropical Storm Tracking
New forecast layout! Learn more

10-Day Weather Forecast

Advertisements
Track Severe Weather on mobile